sensor_id;sensor_type;location;lat;lon;timestamp;P1;durP1;ratioP1;P2;durP2;ratioP2
32399;SDS011;45045;45.440;9.178;2023-01-15T00:01:01;62.10;;;46.15;;
32399;SDS011;45045;45.440;9.178;2023-01-15T00:03:28;62.55;;;45.20;;
32399;SDS011;45045;45.440;9.178;2023-01-15T00:05:55;59.80;;;47.97;;
32399;SDS011;45045;45.440;9.178;2023-01-15T00:08:21;58.67;;;46.78;;
32399;SDS011;45045;45.440;9.178;2023-01-15T00:10:46;60.15;;;47.65;;
32399;SDS011;45045;45.440;9.178;2023-01-15T00:13:12;60.20;;;49.08;;
32399;SDS011;45045;45.440;9.178;2023-01-15T00:15:38;58.83;;;44.88;;
32399;SDS011;45045;45.440;9.178;2023-01-15T00:18:04;55.95;;;44.13;;
32399;SDS011;45045;45.440;9.178;2023-01-15T00:20:30;59.15;;;42.00;;
32399;SDS011;45045;45.440;9.178;2023-01-15T00:22:55;54.95;;;42.38;;
32399;SDS011;45045;45.440;9.178;2023-01-15T00:25:21;51.92;;;41.55;;
32399;SDS011;45045;45.440;9.178;2023-01-15T00:28:05;51.05;;;42.08;;
32399;SDS011;45045;45.440;9.178;2023-01-15T00:30:31;54.67;;;42.75;;
32399;SDS011;45045;45.440;9.178;2023-01-15T00:32:58;53.20;;;41.65;;
32399;SDS011;45045;45.440;9.178;2023-01-15T00:35:24;52.60;;;41.88;;
32399;SDS011;45045;45.440;9.178;2023-01-15T00:37:50;53.58;;;42.78;;
32399;SDS011;45045;45.440;9.178;2023-01-15T00:40:16;54.00;;;41.22;;
32399;SDS011;45045;45.440;9.178;2023-01-15T00:42:43;55.72;;;42.22;;
32399;SDS011;45045;45.440;9.178;2023-01-15T00:45:10;53.90;;;42.72;;
32399;SDS011;45045;45.440;9.178;2023-01-15T00:47:37;57.53;;;42.53;;
32399;SDS011;45045;45.440;9.178;2023-01-15T00:50:04;51.92;;;40.92;;
32399;SDS011;45045;45.440;9.178;2023-01-15T00:52:32;60.72;;;41.53;;
32399;SDS011;45045;45.440;9.178;2023-01-15T00:54:58;51.20;;;40.85;;
32399;SDS011;45045;45.440;9.178;2023-01-15T00:57:23;52.90;;;40.53;;
32399;SDS011;45045;45.440;9.178;2023-01-15T00:59:49;54.95;;;40.30;;
32399;SDS011;45045;45.440;9.178;2023-01-15T01:02:14;52.45;;;40.88;;
32399;SDS011;45045;45.440;9.178;2023-01-15T01:04:40;53.22;;;40.90;;
32399;SDS011;45045;45.440;9.178;2023-01-15T01:07:06;50.03;;;39.40;;
32399;SDS011;45045;45.440;9.178;2023-01-15T01:09:31;54.42;;;39.72;;
32399;SDS011;45045;45.440;9.178;2023-01-15T01:11:57;48.70;;;40.28;;
32399;SDS011;45045;45.440;9.178;2023-01-15T01:14:23;55.03;;;41.03;;
32399;SDS011;45045;45.440;9.178;2023-01-15T01:16:48;51.92;;;42.40;;
32399;SDS011;45045;45.440;9.178;2023-01-15T01:19:15;53.30;;;40.28;;
32399;SDS011;45045;45.440;9.178;2023-01-15T01:21:43;50.00;;;39.83;;
32399;SDS011;45045;45.440;9.178;2023-01-15T01:24:09;52.17;;;40.13;;
32399;SDS011;45045;45.440;9.178;2023-01-15T01:26:36;52.00;;;40.00;;
32399;SDS011;45045;45.440;9.178;2023-01-15T01:29:02;53.00;;;39.22;;
32399;SDS011;45045;45.440;9.178;2023-01-15T01:31:28;51.25;;;41.03;;
32399;SDS011;45045;45.440;9.178;2023-01-15T01:33:55;50.45;;;38.85;;
32399;SDS011;45045;45.440;9.178;2023-01-15T01:36:26;47.58;;;39.67;;
32399;SDS011;45045;45.440;9.178;2023-01-15T01:41:19;47.92;;;39.42;;
32399;SDS011;45045;45.440;9.178;2023-01-15T01:46:19;67.47;;;46.88;;
32399;SDS011;45045;45.440;9.178;2023-01-15T01:48:45;55.17;;;43.22;;
32399;SDS011;45045;45.440;9.178;2023-01-15T01:51:13;48.33;;;40.25;;
32399;SDS011;45045;45.440;9.178;2023-01-15T01:53:39;51.83;;;40.13;;
32399;SDS011;45045;45.440;9.178;2023-01-15T01:56:06;52.42;;;39.88;;
32399;SDS011;45045;45.440;9.178;2023-01-15T01:58:33;52.15;;;39.90;;
32399;SDS011;45045;45.440;9.178;2023-01-15T02:00:59;50.63;;;40.20;;
32399;SDS011;45045;45.440;9.178;2023-01-15T02:03:26;48.35;;;40.72;;
32399;SDS011;45045;45.440;9.178;2023-01-15T02:05:57;50.17;;;39.15;;
32399;SDS011;45045;45.440;9.178;2023-01-15T02:08:25;48.95;;;40.33;;
32399;SDS011;45045;45.440;9.178;2023-01-15T02:10:52;52.95;;;40.85;;
32399;SDS011;45045;45.440;9.178;2023-01-15T02:15:49;53.67;;;40.33;;
32399;SDS011;45045;45.440;9.178;2023-01-15T02:23:52;50.92;;;39.75;;
32399;SDS011;45045;45.440;9.178;2023-01-15T02:29:03;50.40;;;40.85;;
32399;SDS011;45045;45.440;9.178;2023-01-15T02:31:35;50.55;;;40.25;;
32399;SDS011;45045;45.440;9.178;2023-01-15T02:34:07;49.58;;;40.80;;
32399;SDS011;45045;45.440;9.178;2023-01-15T02:36:45;54.88;;;41.20;;
32399;SDS011;45045;45.440;9.178;2023-01-15T02:39:14;53.08;;;42.25;;
32399;SDS011;45045;45.440;9.178;2023-01-15T02:41:43;51.25;;;40.65;;
32399;SDS011;45045;45.440;9.178;2023-01-15T02:44:13;52.53;;;41.80;;
32399;SDS011;45045;45.440;9.178;2023-01-15T02:46:41;51.78;;;42.58;;
32399;SDS011;45045;45.440;9.178;2023-01-15T02:49:09;51.65;;;41.55;;
32399;SDS011;45045;45.440;9.178;2023-01-15T02:51:40;51.95;;;41.03;;
32399;SDS011;45045;45.440;9.178;2023-01-15T02:54:12;51.80;;;42.90;;
32399;SDS011;45045;45.440;9.178;2023-01-15T02:56:40;55.22;;;43.95;;
32399;SDS011;45045;45.440;9.178;2023-01-15T02:59:10;52.95;;;41.80;;
32399;SDS011;45045;45.440;9.178;2023-01-15T03:01:40;52.47;;;42.67;;
32399;SDS011;45045;45.440;9.178;2023-01-15T03:04:16;53.05;;;43.20;;
32399;SDS011;45045;45.440;9.178;2023-01-15T03:09:25;52.55;;;42.30;;
32399;SDS011;45045;45.440;9.178;2023-01-15T03:12:07;54.85;;;44.92;;
32399;SDS011;45045;45.440;9.178;2023-01-15T03:20:24;52.13;;;42.08;;
32399;SDS011;45045;45.440;9.178;2023-01-15T03:22:56;50.92;;;41.53;;
32399;SDS011;45045;45.440;9.178;2023-01-15T03:25:28;51.28;;;40.92;;
32399;SDS011;45045;45.440;9.178;2023-01-15T03:27:58;51.42;;;41.65;;
32399;SDS011;45045;45.440;9.178;2023-01-15T03:30:27;52.28;;;41.33;;
32399;SDS011;45045;45.440;9.178;2023-01-15T03:32:53;51.70;;;41.67;;
32399;SDS011;45045;45.440;9.178;2023-01-15T03:38:07;49.65;;;40.53;;
32399;SDS011;45045;45.440;9.178;2023-01-15T03:40:32;50.92;;;41.88;;
32399;SDS011;45045;45.440;9.178;2023-01-15T03:43:05;53.22;;;41.90;;
32399;SDS011;45045;45.440;9.178;2023-01-15T03:45:56;54.65;;;41.67;;
32399;SDS011;45045;45.440;9.178;2023-01-15T03:51:07;55.53;;;42.20;;
32399;SDS011;45045;45.440;9.178;2023-01-15T03:53:50;50.40;;;41.65;;
32399;SDS011;45045;45.440;9.178;2023-01-15T03:56:30;51.72;;;41.78;;
32399;SDS011;45045;45.440;9.178;2023-01-15T03:59:01;52.30;;;41.53;;
32399;SDS011;45045;45.440;9.178;2023-01-15T04:01:47;53.15;;;41.30;;
32399;SDS011;45045;45.440;9.178;2023-01-15T04:04:14;51.50;;;41.53;;
32399;SDS011;45045;45.440;9.178;2023-01-15T04:06:40;55.17;;;43.88;;
32399;SDS011;45045;45.440;9.178;2023-01-15T04:09:09;54.65;;;43.60;;
32399;SDS011;45045;45.440;9.178;2023-01-15T04:11:36;55.20;;;42.97;;
32399;SDS011;45045;45.440;9.178;2023-01-15T04:14:02;55.85;;;43.35;;
32399;SDS011;45045;45.440;9.178;2023-01-15T04:16:28;55.13;;;43.78;;
32399;SDS011;45045;45.440;9.178;2023-01-15T04:18:55;53.70;;;41.60;;
32399;SDS011;45045;45.440;9.178;2023-01-15T04:21:21;52.75;;;43.60;;
32399;SDS011;45045;45.440;9.178;2023-01-15T04:23:47;53.28;;;43.28;;
32399;SDS011;45045;45.440;9.178;2023-01-15T04:26:14;53.13;;;42.60;;
32399;SDS011;45045;45.440;9.178;2023-01-15T04:28:40;56.55;;;43.22;;
32399;SDS011;45045;45.440;9.178;2023-01-15T04:31:06;59.15;;;46.08;;
32399;SDS011;45045;45.440;9.178;2023-01-15T04:33:32;56.72;;;43.63;;
32399;SDS011;45045;45.440;9.178;2023-01-15T04:35:58;56.00;;;44.38;;
32399;SDS011;45045;45.440;9.178;2023-01-15T04:38:25;56.20;;;43.85;;
32399;SDS011;45045;45.440;9.178;2023-01-15T04:40:51;55.90;;;43.67;;
32399;SDS011;45045;45.440;9.178;2023-01-15T04:43:35;57.10;;;45.42;;
32399;SDS011;45045;45.440;9.178;2023-01-15T04:46:20;57.35;;;45.92;;
32399;SDS011;45045;45.440;9.178;2023-01-15T04:48:46;56.03;;;45.70;;
32399;SDS011;45045;45.440;9.178;2023-01-15T04:51:12;54.72;;;46.55;;
32399;SDS011;45045;45.440;9.178;2023-01-15T04:53:37;62.30;;;47.10;;
32399;SDS011;45045;45.440;9.178;2023-01-15T04:56:03;57.08;;;47.22;;
32399;SDS011;45045;45.440;9.178;2023-01-15T04:58:30;59.72;;;48.45;;
32399;SDS011;45045;45.440;9.178;2023-01-15T05:00:56;58.85;;;46.80;;
32399;SDS011;45045;45.440;9.178;2023-01-15T05:03:24;61.45;;;47.67;;
32399;SDS011;45045;45.440;9.178;2023-01-15T05:05:50;56.40;;;46.60;;
32399;SDS011;45045;45.440;9.178;2023-01-15T05:08:16;56.47;;;46.20;;
32399;SDS011;45045;45.440;9.178;2023-01-15T05:10:42;56.13;;;47.05;;
32399;SDS011;45045;45.440;9.178;2023-01-15T05:13:08;56.80;;;46.33;;
32399;SDS011;45045;45.440;9.178;2023-01-15T05:15:33;58.15;;;46.03;;
32399;SDS011;45045;45.440;9.178;2023-01-15T05:17:59;57.47;;;47.08;;
32399;SDS011;45045;45.440;9.178;2023-01-15T05:20:24;57.20;;;46.88;;
32399;SDS011;45045;45.440;9.178;2023-01-15T05:22:50;59.08;;;47.10;;
32399;SDS011;45045;45.440;9.178;2023-01-15T05:25:16;57.03;;;46.63;;
32399;SDS011;45045;45.440;9.178;2023-01-15T05:27:41;60.55;;;47.97;;
32399;SDS011;45045;45.440;9.178;2023-01-15T05:30:07;53.63;;;43.05;;
32399;SDS011;45045;45.440;9.178;2023-01-15T05:32:34;52.38;;;42.72;;
32399;SDS011;45045;45.440;9.178;2023-01-15T05:34:59;53.63;;;43.88;;
32399;SDS011;45045;45.440;9.178;2023-01-15T05:37:25;51.30;;;44.40;;
32399;SDS011;45045;45.440;9.178;2023-01-15T05:39:53;58.28;;;49.22;;
32399;SDS011;45045;45.440;9.178;2023-01-15T05:42:18;60.13;;;47.90;;
32399;SDS011;45045;45.440;9.178;2023-01-15T05:44:44;59.78;;;49.53;;
32399;SDS011;45045;45.440;9.178;2023-01-15T05:47:10;58.30;;;48.35;;
32399;SDS011;45045;45.440;9.178;2023-01-15T05:49:35;65.35;;;54.35;;
32399;SDS011;45045;45.440;9.178;2023-01-15T05:52:01;61.78;;;51.30;;
32399;SDS011;45045;45.440;9.178;2023-01-15T05:54:29;60.47;;;50.83;;
32399;SDS011;45045;45.440;9.178;2023-01-15T05:56:56;61.30;;;50.50;;
32399;SDS011;45045;45.440;9.178;2023-01-15T05:59:23;59.50;;;50.50;;
32399;SDS011;45045;45.440;9.178;2023-01-15T06:01:50;64.60;;;53.78;;
32399;SDS011;45045;45.440;9.178;2023-01-15T06:04:17;68.70;;;54.88;;
32399;SDS011;45045;45.440;9.178;2023-01-15T06:06:47;68.85;;;53.45;;
32399;SDS011;45045;45.440;9.178;2023-01-15T06:09:13;57.00;;;46.78;;
32399;SDS011;45045;45.440;9.178;2023-01-15T06:11:39;57.83;;;45.63;;
32399;SDS011;45045;45.440;9.178;2023-01-15T06:14:05;57.38;;;44.65;;
32399;SDS011;45045;45.440;9.178;2023-01-15T06:16:32;54.00;;;43.15;;
32399;SDS011;45045;45.440;9.178;2023-01-15T06:19:01;52.55;;;42.90;;
32399;SDS011;45045;45.440;9.178;2023-01-15T06:21:29;49.30;;;40.42;;
32399;SDS011;45045;45.440;9.178;2023-01-15T06:23:55;50.00;;;40.65;;
32399;SDS011;45045;45.440;9.178;2023-01-15T06:26:21;50.25;;;40.63;;
32399;SDS011;45045;45.440;9.178;2023-01-15T06:28:47;49.25;;;40.13;;
32399;SDS011;45045;45.440;9.178;2023-01-15T06:31:15;51.70;;;41.28;;
32399;SDS011;45045;45.440;9.178;2023-01-15T06:33:42;52.85;;;41.83;;
32399;SDS011;45045;45.440;9.178;2023-01-15T06:36:09;48.78;;;41.13;;
32399;SDS011;45045;45.440;9.178;2023-01-15T06:38:36;52.10;;;41.17;;
32399;SDS011;45045;45.440;9.178;2023-01-15T06:41:03;52.33;;;41.65;;
32399;SDS011;45045;45.440;9.178;2023-01-15T06:43:50;52.15;;;41.42;;
32399;SDS011;45045;45.440;9.178;2023-01-15T06:46:34;56.00;;;43.72;;
32399;SDS011;45045;45.440;9.178;2023-01-15T06:49:18;51.08;;;42.20;;
32399;SDS011;45045;45.440;9.178;2023-01-15T06:51:44;48.65;;;41.50;;
32399;SDS011;45045;45.440;9.178;2023-01-15T06:54:09;52.25;;;43.42;;
32399;SDS011;45045;45.440;9.178;2023-01-15T06:56:35;53.67;;;43.00;;
32399;SDS011;45045;45.440;9.178;2023-01-15T06:59:01;59.10;;;43.78;;
32399;SDS011;45045;45.440;9.178;2023-01-15T07:01:26;51.60;;;43.33;;
32399;SDS011;45045;45.440;9.178;2023-01-15T07:03:55;55.75;;;43.80;;
32399;SDS011;45045;45.440;9.178;2023-01-15T07:06:20;51.78;;;42.47;;
32399;SDS011;45045;45.440;9.178;2023-01-15T07:08:46;54.53;;;43.97;;
32399;SDS011;45045;45.440;9.178;2023-01-15T07:11:12;51.88;;;43.33;;
32399;SDS011;45045;45.440;9.178;2023-01-15T07:13:38;54.63;;;42.53;;
32399;SDS011;45045;45.440;9.178;2023-01-15T07:16:04;53.10;;;43.83;;
32399;SDS011;45045;45.440;9.178;2023-01-15T07:18:30;57.35;;;45.30;;
32399;SDS011;45045;45.440;9.178;2023-01-15T07:20:57;59.55;;;44.63;;
32399;SDS011;45045;45.440;9.178;2023-01-15T07:23:23;53.47;;;43.50;;
32399;SDS011;45045;45.440;9.178;2023-01-15T07:25:53;54.25;;;44.92;;
32399;SDS011;45045;45.440;9.178;2023-01-15T07:28:20;57.80;;;45.40;;
32399;SDS011;45045;45.440;9.178;2023-01-15T07:30:46;59.08;;;46.30;;
32399;SDS011;45045;45.440;9.178;2023-01-15T07:33:12;55.72;;;45.28;;
32399;SDS011;45045;45.440;9.178;2023-01-15T07:35:38;55.17;;;45.53;;
32399;SDS011;45045;45.440;9.178;2023-01-15T07:38:04;57.83;;;45.00;;
32399;SDS011;45045;45.440;9.178;2023-01-15T07:40:29;55.88;;;44.70;;
32399;SDS011;45045;45.440;9.178;2023-01-15T07:42:55;57.08;;;44.63;;
32399;SDS011;45045;45.440;9.178;2023-01-15T07:45:39;55.70;;;42.70;;
32399;SDS011;45045;45.440;9.178;2023-01-15T07:48:30;50.10;;;41.42;;
32399;SDS011;45045;45.440;9.178;2023-01-15T07:51:14;53.38;;;42.03;;
32399;SDS011;45045;45.440;9.178;2023-01-15T07:53:40;52.72;;;43.55;;
32399;SDS011;45045;45.440;9.178;2023-01-15T07:56:06;50.15;;;41.95;;
32399;SDS011;45045;45.440;9.178;2023-01-15T07:58:32;52.80;;;43.30;;
32399;SDS011;45045;45.440;9.178;2023-01-15T08:00:58;54.78;;;44.63;;
32399;SDS011;45045;45.440;9.178;2023-01-15T08:03:23;53.67;;;44.08;;
32399;SDS011;45045;45.440;9.178;2023-01-15T08:05:49;53.95;;;43.75;;
32399;SDS011;45045;45.440;9.178;2023-01-15T08:08:15;54.13;;;43.35;;
32399;SDS011;45045;45.440;9.178;2023-01-15T08:10:42;53.30;;;42.50;;
32399;SDS011;45045;45.440;9.178;2023-01-15T08:13:26;52.17;;;41.78;;
32399;SDS011;45045;45.440;9.178;2023-01-15T08:16:10;52.85;;;42.17;;
32399;SDS011;45045;45.440;9.178;2023-01-15T08:18:36;53.25;;;42.65;;
32399;SDS011;45045;45.440;9.178;2023-01-15T08:21:02;50.72;;;42.13;;
32399;SDS011;45045;45.440;9.178;2023-01-15T08:23:28;53.50;;;41.58;;
32399;SDS011;45045;45.440;9.178;2023-01-15T08:25:54;54.05;;;42.42;;
32399;SDS011;45045;45.440;9.178;2023-01-15T08:28:24;51.88;;;41.97;;
32399;SDS011;45045;45.440;9.178;2023-01-15T08:30:49;51.80;;;41.25;;
32399;SDS011;45045;45.440;9.178;2023-01-15T08:33:15;53.03;;;43.35;;
32399;SDS011;45045;45.440;9.178;2023-01-15T08:35:40;53.65;;;43.15;;
32399;SDS011;45045;45.440;9.178;2023-01-15T08:38:06;50.63;;;41.50;;
32399;SDS011;45045;45.440;9.178;2023-01-15T08:40:33;57.63;;;43.63;;
32399;SDS011;45045;45.440;9.178;2023-01-15T08:43:00;53.75;;;42.22;;
32399;SDS011;45045;45.440;9.178;2023-01-15T08:45:26;55.75;;;43.38;;
32399;SDS011;45045;45.440;9.178;2023-01-15T08:47:55;50.45;;;42.10;;
32399;SDS011;45045;45.440;9.178;2023-01-15T08:50:22;52.10;;;42.03;;
32399;SDS011;45045;45.440;9.178;2023-01-15T08:52:48;54.15;;;42.25;;
32399;SDS011;45045;45.440;9.178;2023-01-15T08:55:13;48.95;;;41.78;;
32399;SDS011;45045;45.440;9.178;2023-01-15T08:57:39;56.25;;;43.67;;
32399;SDS011;45045;45.440;9.178;2023-01-15T09:00:05;51.15;;;42.30;;
32399;SDS011;45045;45.440;9.178;2023-01-15T09:02:31;53.75;;;42.65;;
32399;SDS011;45045;45.440;9.178;2023-01-15T09:04:57;53.28;;;41.30;;
32399;SDS011;45045;45.440;9.178;2023-01-15T09:07:22;54.13;;;42.15;;
32399;SDS011;45045;45.440;9.178;2023-01-15T09:09:48;55.03;;;42.90;;
32399;SDS011;45045;45.440;9.178;2023-01-15T09:12:14;52.30;;;43.15;;
32399;SDS011;45045;45.440;9.178;2023-01-15T09:14:39;51.85;;;42.55;;
32399;SDS011;45045;45.440;9.178;2023-01-15T09:17:05;51.05;;;42.67;;
32399;SDS011;45045;45.440;9.178;2023-01-15T09:19:30;55.88;;;44.67;;
32399;SDS011;45045;45.440;9.178;2023-01-15T09:21:56;56.80;;;43.78;;
32399;SDS011;45045;45.440;9.178;2023-01-15T09:24:22;54.83;;;43.40;;
32399;SDS011;45045;45.440;9.178;2023-01-15T09:26:47;52.30;;;43.92;;
32399;SDS011;45045;45.440;9.178;2023-01-15T09:29:17;58.20;;;44.83;;
32399;SDS011;45045;45.440;9.178;2023-01-15T09:31:42;54.80;;;42.47;;
32399;SDS011;45045;45.440;9.178;2023-01-15T09:34:08;55.65;;;44.60;;
32399;SDS011;45045;45.440;9.178;2023-01-15T09:36:34;54.58;;;43.83;;
32399;SDS011;45045;45.440;9.178;2023-01-15T09:39:00;55.58;;;44.17;;
32399;SDS011;45045;45.440;9.178;2023-01-15T09:41:30;55.05;;;44.85;;
32399;SDS011;45045;45.440;9.178;2023-01-15T09:47:34;54.53;;;42.60;;
32399;SDS011;45045;45.440;9.178;2023-01-15T09:55:21;55.58;;;43.47;;
32399;SDS011;45045;45.440;9.178;2023-01-15T09:57:53;55.78;;;43.53;;
32399;SDS011;45045;45.440;9.178;2023-01-15T10:00:22;53.55;;;43.92;;
32399;SDS011;45045;45.440;9.178;2023-01-15T10:05:49;55.70;;;43.95;;
32399;SDS011;45045;45.440;9.178;2023-01-15T10:10:47;57.78;;;44.15;;
32399;SDS011;45045;45.440;9.178;2023-01-15T10:15:58;52.65;;;43.00;;
32399;SDS011;45045;45.440;9.178;2023-01-15T10:18:24;54.95;;;43.22;;
32399;SDS011;45045;45.440;9.178;2023-01-15T10:20:56;55.75;;;45.03;;
32399;SDS011;45045;45.440;9.178;2023-01-15T10:26:02;52.15;;;42.33;;
32399;SDS011;45045;45.440;9.178;2023-01-15T10:28:51;51.80;;;41.03;;
32399;SDS011;45045;45.440;9.178;2023-01-15T10:31:24;50.35;;;41.22;;
32399;SDS011;45045;45.440;9.178;2023-01-15T10:34:04;65.60;;;49.00;;
32399;SDS011;45045;45.440;9.178;2023-01-15T10:36:55;60.00;;;45.38;;
32399;SDS011;45045;45.440;9.178;2023-01-15T10:42:03;65.85;;;46.22;;
32399;SDS011;45045;45.440;9.178;2023-01-15T10:47:22;57.00;;;45.10;;
32399;SDS011;45045;45.440;9.178;2023-01-15T10:49:54;60.95;;;46.15;;
32399;SDS011;45045;45.440;9.178;2023-01-15T10:52:28;58.55;;;45.35;;
32399;SDS011;45045;45.440;9.178;2023-01-15T10:58:02;59.70;;;48.05;;
32399;SDS011;45045;45.440;9.178;2023-01-15T11:00:45;57.60;;;46.80;;
32399;SDS011;45045;45.440;9.178;2023-01-15T11:03:18;55.85;;;45.75;;
32399;SDS011;45045;45.440;9.178;2023-01-15T11:05:47;60.17;;;47.92;;
32399;SDS011;45045;45.440;9.178;2023-01-15T11:08:21;59.92;;;47.13;;
32399;SDS011;45045;45.440;9.178;2023-01-15T11:10:55;59.65;;;45.13;;
32399;SDS011;45045;45.440;9.178;2023-01-15T11:13:31;57.13;;;46.90;;
32399;SDS011;45045;45.440;9.178;2023-01-15T11:16:20;56.85;;;46.83;;
32399;SDS011;45045;45.440;9.178;2023-01-15T11:19:02;60.20;;;47.70;;
32399;SDS011;45045;45.440;9.178;2023-01-15T11:21:48;57.22;;;46.80;;
32399;SDS011;45045;45.440;9.178;2023-01-15T11:24:15;58.63;;;47.50;;
32399;SDS011;45045;45.440;9.178;2023-01-15T11:26:45;55.50;;;46.22;;
32399;SDS011;45045;45.440;9.178;2023-01-15T11:29:20;59.20;;;47.92;;
32399;SDS011;45045;45.440;9.178;2023-01-15T11:32:00;57.50;;;47.67;;
32399;SDS011;45045;45.440;9.178;2023-01-15T11:34:26;59.90;;;47.50;;
32399;SDS011;45045;45.440;9.178;2023-01-15T11:37:02;59.78;;;49.17;;
32399;SDS011;45045;45.440;9.178;2023-01-15T11:39:28;56.38;;;44.80;;
32399;SDS011;45045;45.440;9.178;2023-01-15T11:42:05;59.50;;;47.05;;
32399;SDS011;45045;45.440;9.178;2023-01-15T11:44:57;58.40;;;47.33;;
32399;SDS011;45045;45.440;9.178;2023-01-15T11:48:00;63.38;;;48.47;;
32399;SDS011;45045;45.440;9.178;2023-01-15T11:50:55;58.75;;;47.30;;
32399;SDS011;45045;45.440;9.178;2023-01-15T11:53:28;62.47;;;49.50;;
32399;SDS011;45045;45.440;9.178;2023-01-15T11:56:00;61.75;;;48.67;;
32399;SDS011;45045;45.440;9.178;2023-01-15T11:58:49;63.20;;;49.38;;
32399;SDS011;45045;45.440;9.178;2023-01-15T12:03:52;58.33;;;48.30;;
32399;SDS011;45045;45.440;9.178;2023-01-15T12:06:19;60.45;;;48.45;;
32399;SDS011;45045;45.440;9.178;2023-01-15T12:08:50;60.85;;;49.00;;
32399;SDS011;45045;45.440;9.178;2023-01-15T12:11:27;65.45;;;49.05;;
32399;SDS011;45045;45.440;9.178;2023-01-15T12:22:33;80.20;;;59.63;;
32399;SDS011;45045;45.440;9.178;2023-01-15T12:27:58;63.92;;;52.25;;
32399;SDS011;45045;45.440;9.178;2023-01-15T12:33:17;64.90;;;51.88;;
32399;SDS011;45045;45.440;9.178;2023-01-15T12:41:31;67.60;;;53.23;;
32399;SDS011;45045;45.440;9.178;2023-01-15T12:44:28;68.28;;;53.55;;
32399;SDS011;45045;45.440;9.178;2023-01-15T12:47:16;66.57;;;53.00;;
32399;SDS011;45045;45.440;9.178;2023-01-15T12:49:47;68.43;;;52.28;;
32399;SDS011;45045;45.440;9.178;2023-01-15T12:52:21;68.53;;;53.15;;
32399;SDS011;45045;45.440;9.178;2023-01-15T12:55:12;66.93;;;52.83;;
32399;SDS011;45045;45.440;9.178;2023-01-15T12:57:50;68.25;;;53.25;;
32399;SDS011;45045;45.440;9.178;2023-01-15T13:00:24;69.15;;;54.58;;
32399;SDS011;45045;45.440;9.178;2023-01-15T13:10:43;66.93;;;55.55;;
32399;SDS011;45045;45.440;9.178;2023-01-15T13:13:14;66.93;;;54.75;;
32399;SDS011;45045;45.440;9.178;2023-01-15T13:15:43;67.75;;;53.38;;
32399;SDS011;45045;45.440;9.178;2023-01-15T13:18:23;65.45;;;51.10;;
32399;SDS011;45045;45.440;9.178;2023-01-15T13:20:59;66.50;;;53.13;;
32399;SDS011;45045;45.440;9.178;2023-01-15T13:23:55;68.22;;;53.80;;
32399;SDS011;45045;45.440;9.178;2023-01-15T13:29:21;67.95;;;54.15;;
32399;SDS011;45045;45.440;9.178;2023-01-15T13:34:37;70.22;;;55.10;;
32399;SDS011;45045;45.440;9.178;2023-01-15T13:39:52;65.10;;;52.83;;
32399;SDS011;45045;45.440;9.178;2023-01-15T13:42:23;62.55;;;50.55;;
32399;SDS011;45045;45.440;9.178;2023-01-15T13:44:57;63.97;;;51.90;;
32399;SDS011;45045;45.440;9.178;2023-01-15T13:47:34;60.17;;;50.90;;
32399;SDS011;45045;45.440;9.178;2023-01-15T13:50:03;66.40;;;53.45;;
32399;SDS011;45045;45.440;9.178;2023-01-15T13:52:36;67.97;;;51.72;;
32399;SDS011;45045;45.440;9.178;2023-01-15T13:57:38;67.97;;;53.72;;
32399;SDS011;45045;45.440;9.178;2023-01-15T14:00:25;70.00;;;55.97;;
32399;SDS011;45045;45.440;9.178;2023-01-15T14:02:51;73.15;;;55.55;;
32399;SDS011;45045;45.440;9.178;2023-01-15T14:07:47;68.28;;;56.15;;
32399;SDS011;45045;45.440;9.178;2023-01-15T14:27:05;56.40;;;44.10;;
32399;SDS011;45045;45.440;9.178;2023-01-15T14:29:59;57.58;;;43.67;;
32399;SDS011;45045;45.440;9.178;2023-01-15T14:32:39;56.55;;;43.47;;
32399;SDS011;45045;45.440;9.178;2023-01-15T14:35:19;56.88;;;43.22;;
32399;SDS011;45045;45.440;9.178;2023-01-15T14:40:25;58.28;;;43.42;;
32399;SDS011;45045;45.440;9.178;2023-01-15T14:42:55;59.15;;;44.75;;
32399;SDS011;45045;45.440;9.178;2023-01-15T14:47:55;57.80;;;44.50;;
32399;SDS011;45045;45.440;9.178;2023-01-15T14:55:37;50.30;;;39.58;;
32399;SDS011;45045;45.440;9.178;2023-01-15T14:58:16;54.58;;;41.22;;
32399;SDS011;45045;45.440;9.178;2023-01-15T15:00:56;54.90;;;40.92;;
32399;SDS011;45045;45.440;9.178;2023-01-15T15:03:31;57.17;;;41.05;;
32399;SDS011;45045;45.440;9.178;2023-01-15T15:06:00;56.13;;;42.85;;
32399;SDS011;45045;45.440;9.178;2023-01-15T15:08:28;50.08;;;40.55;;
32399;SDS011;45045;45.440;9.178;2023-01-15T15:10:57;54.75;;;41.28;;
32399;SDS011;45045;45.440;9.178;2023-01-15T15:13:28;54.03;;;40.30;;
32399;SDS011;45045;45.440;9.178;2023-01-15T15:16:03;53.25;;;39.05;;
32399;SDS011;45045;45.440;9.178;2023-01-15T15:19:05;48.70;;;35.43;;
32399;SDS011;45045;45.440;9.178;2023-01-15T15:21:39;53.97;;;37.40;;
32399;SDS011;45045;45.440;9.178;2023-01-15T15:24:17;43.22;;;33.78;;
32399;SDS011;45045;45.440;9.178;2023-01-15T15:26:48;55.10;;;42.35;;
32399;SDS011;45045;45.440;9.178;2023-01-15T15:29:14;42.75;;;33.38;;
32399;SDS011;45045;45.440;9.178;2023-01-15T15:31:46;40.58;;;31.60;;
32399;SDS011;45045;45.440;9.178;2023-01-15T15:34:25;44.45;;;33.47;;
32399;SDS011;45045;45.440;9.178;2023-01-15T15:36:56;41.20;;;32.05;;
32399;SDS011;45045;45.440;9.178;2023-01-15T15:41:53;43.50;;;33.83;;
32399;SDS011;45045;45.440;9.178;2023-01-15T15:44:58;43.50;;;33.53;;
32399;SDS011;45045;45.440;9.178;2023-01-15T15:47:43;45.72;;;36.10;;
32399;SDS011;45045;45.440;9.178;2023-01-15T15:50:28;71.05;;;54.65;;
32399;SDS011;45045;45.440;9.178;2023-01-15T15:52:56;56.13;;;40.97;;
32399;SDS011;45045;45.440;9.178;2023-01-15T15:55:23;55.63;;;44.47;;
32399;SDS011;45045;45.440;9.178;2023-01-15T15:57:55;79.88;;;60.55;;
32399;SDS011;45045;45.440;9.178;2023-01-15T16:00:37;68.90;;;52.30;;
32399;SDS011;45045;45.440;9.178;2023-01-15T16:03:17;50.25;;;38.20;;
32399;SDS011;45045;45.440;9.178;2023-01-15T16:06:04;51.90;;;41.75;;
32399;SDS011;45045;45.440;9.178;2023-01-15T16:08:33;66.43;;;51.50;;
32399;SDS011;45045;45.440;9.178;2023-01-15T16:11:10;48.25;;;39.90;;
32399;SDS011;45045;45.440;9.178;2023-01-15T16:13:50;50.22;;;40.92;;
32399;SDS011;45045;45.440;9.178;2023-01-15T16:16:17;51.50;;;41.73;;
32399;SDS011;45045;45.440;9.178;2023-01-15T16:18:46;57.83;;;45.95;;
32399;SDS011;45045;45.440;9.178;2023-01-15T16:24:01;62.00;;;47.72;;
32399;SDS011;45045;45.440;9.178;2023-01-15T16:26:32;38.20;;;29.60;;
32399;SDS011;45045;45.440;9.178;2023-01-15T16:29:04;39.05;;;30.38;;
32399;SDS011;45045;45.440;9.178;2023-01-15T16:31:42;35.35;;;29.70;;
32399;SDS011;45045;45.440;9.178;2023-01-15T16:34:10;37.97;;;29.77;;
32399;SDS011;45045;45.440;9.178;2023-01-15T16:36:43;41.67;;;31.75;;
32399;SDS011;45045;45.440;9.178;2023-01-15T16:42:02;50.45;;;38.17;;
32399;SDS011;45045;45.440;9.178;2023-01-15T16:47:01;70.70;;;55.03;;
32399;SDS011;45045;45.440;9.178;2023-01-15T16:49:30;55.70;;;41.83;;
32399;SDS011;45045;45.440;9.178;2023-01-15T16:51:57;46.88;;;36.40;;
32399;SDS011;45045;45.440;9.178;2023-01-15T16:57:03;51.45;;;39.08;;
32399;SDS011;45045;45.440;9.178;2023-01-15T16:59:54;44.08;;;37.58;;
32399;SDS011;45045;45.440;9.178;2023-01-15T17:02:21;48.45;;;39.75;;